sensor_id;sensor_type;location;lat;lon;timestamp;pressure;altitude;pressure_sealevel;temperature;humidity
79544;BME280;68994;47.176;7.534;2023-04-15T00:00:57;95073.50;;;7.42;66.17
79544;BME280;68994;47.176;7.534;2023-04-15T00:03:25;95070.84;;;7.42;65.99
79544;BME280;68994;47.176;7.534;2023-04-15T00:05:52;95075.09;;;7.38;66.43
79544;BME280;68994;47.176;7.534;2023-04-15T00:08:19;95069.78;;;7.43;65.92
79544;BME280;68994;47.176;7.534;2023-04-15T00:10:46;95079.63;;;7.42;66.07
79544;BME280;68994;47.176;7.534;2023-04-15T00:13:13;95075.13;;;7.53;65.56
79544;BME280;68994;47.176;7.534;2023-04-15T00:15:40;95066.59;;;7.41;66.29
79544;BME280;68994;47.176;7.534;2023-04-15T00:18:07;95065.53;;;7.42;66.28
79544;BME280;68994;47.176;7.534;2023-04-15T00:20:35;95067.66;;;7.40;66.54
79544;BME280;68994;47.176;7.534;2023-04-15T00:23:02;95062.34;;;7.40;66.04
79544;BME280;68994;47.176;7.534;2023-04-15T00:25:29;95067.91;;;7.38;66.36
79544;BME280;68994;47.176;7.534;2023-04-15T00:27:56;95063.41;;;7.39;66.38
79544;BME280;68994;47.176;7.534;2023-04-15T00:30:23;95075.59;;;7.35;66.20
79544;BME280;68994;47.176;7.534;2023-04-15T00:32:49;95070.03;;;7.31;67.95
79544;BME280;68994;47.176;7.534;2023-04-15T00:35:17;95065.50;;;7.32;67.60
79544;BME280;68994;47.176;7.534;2023-04-15T00:37:45;95070.28;;;7.35;68.12
79544;BME280;68994;47.176;7.534;2023-04-15T00:40:12;95070.28;;;7.35;66.15
79544;BME280;68994;47.176;7.534;2023-04-15T00:42:39;95068.16;;;7.32;67.64
79544;BME280;68994;47.176;7.534;2023-04-15T00:45:06;95070.03;;;7.31;67.02
79544;BME280;68994;47.176;7.534;2023-04-15T00:47:34;95071.31;;;7.29;68.98
79544;BME280;68994;47.176;7.534;2023-04-15T00:50:02;95067.09;;;7.28;69.11
79544;BME280;68994;47.176;7.534;2023-04-15T00:52:29;95063.63;;;7.27;69.71
79544;BME280;68994;47.176;7.534;2023-04-15T00:54:57;95065.47;;;7.27;71.06
79544;BME280;68994;47.176;7.534;2023-04-15T00:57:25;95061.50;;;7.24;71.11
79544;BME280;68994;47.176;7.534;2023-04-15T00:59:51;95057.22;;;7.18;71.29
79544;BME280;68994;47.176;7.534;2023-04-15T01:02:18;95065.41;;;7.11;70.64
79544;BME280;68994;47.176;7.534;2023-04-15T01:04:46;95067.56;;;7.14;71.23
79544;BME280;68994;47.176;7.534;2023-04-15T01:07:12;95067.59;;;7.19;70.87
79544;BME280;68994;47.176;7.534;2023-04-15T01:09:39;95062.81;;;7.21;70.83
79544;BME280;68994;47.176;7.534;2023-04-15T01:12:09;95064.41;;;7.17;69.86
79544;BME280;68994;47.176;7.534;2023-04-15T01:14:37;95062.50;;;7.13;67.81
79544;BME280;68994;47.176;7.534;2023-04-15T01:17:04;95050.03;;;7.13;67.93
79544;BME280;68994;47.176;7.534;2023-04-15T01:19:31;95061.19;;;7.15;69.50
79544;BME280;68994;47.176;7.534;2023-04-15T01:21:58;95056.38;;;7.07;70.40
79544;BME280;68994;47.176;7.534;2023-04-15T01:24:26;95060.84;;;7.01;71.01
79544;BME280;68994;47.176;7.534;2023-04-15T01:26:55;95054.19;;;6.94;72.00
79544;BME280;68994;47.176;7.534;2023-04-15T01:29:21;95057.91;;;6.93;69.74
79544;BME280;68994;47.176;7.534;2023-04-15T01:31:49;95055.72;;;6.84;71.44
79544;BME280;68994;47.176;7.534;2023-04-15T01:34:17;95057.25;;;6.75;72.67
79544;BME280;68994;47.176;7.534;2023-04-15T01:36:43;95050.88;;;6.71;72.70
79544;BME280;68994;47.176;7.534;2023-04-15T01:39:10;95041.56;;;6.68;73.02
79544;BME280;68994;47.176;7.534;2023-04-15T01:41:37;95051.38;;;6.68;72.74
79544;BME280;68994;47.176;7.534;2023-04-15T01:44:06;95050.59;;;6.67;72.92
79544;BME280;68994;47.176;7.534;2023-04-15T01:46:33;95051.91;;;6.70;73.71
79544;BME280;68994;47.176;7.534;2023-04-15T01:49:00;95045.56;;;6.71;74.14
79544;BME280;68994;47.176;7.534;2023-04-15T01:51:26;95054.34;;;6.77;74.15
79544;BME280;68994;47.176;7.534;2023-04-15T01:53:53;95046.97;;;6.79;73.46
79544;BME280;68994;47.176;7.534;2023-04-15T01:56:21;95051.72;;;6.82;73.21
79544;BME280;68994;47.176;7.534;2023-04-15T01:58:48;95045.56;;;6.71;72.93
79544;BME280;68994;47.176;7.534;2023-04-15T02:01:16;95041.88;;;6.72;71.91
79544;BME280;68994;47.176;7.534;2023-04-15T02:03:44;95049.88;;;6.77;74.39
79544;BME280;68994;47.176;7.534;2023-04-15T02:06:10;95051.94;;;6.75;73.10
79544;BME280;68994;47.176;7.534;2023-04-15T02:08:37;95052.53;;;6.82;71.44
79544;BME280;68994;47.176;7.534;2023-04-15T02:11:04;95047.81;;;6.90;70.64
79544;BME280;68994;47.176;7.534;2023-04-15T02:13:30;95052.38;;;7.04;68.73
79544;BME280;68994;47.176;7.534;2023-04-15T02:15:57;95048.41;;;7.07;69.42
79544;BME280;68994;47.176;7.534;2023-04-15T02:18:25;95053.44;;;7.03;70.72
79544;BME280;68994;47.176;7.534;2023-04-15T02:20:52;95054.22;;;6.99;69.78
79544;BME280;68994;47.176;7.534;2023-04-15T02:23:20;95053.41;;;6.98;70.50
79544;BME280;68994;47.176;7.534;2023-04-15T02:25:47;95049.69;;;6.94;71.35
79544;BME280;68994;47.176;7.534;2023-04-15T02:28:15;95053.41;;;6.98;72.26
79544;BME280;68994;47.176;7.534;2023-04-15T02:30:41;95048.34;;;6.97;71.24
79544;BME280;68994;47.176;7.534;2023-04-15T02:33:08;95046.28;;;6.99;73.09
79544;BME280;68994;47.176;7.534;2023-04-15T02:35:36;95054.47;;;6.97;73.72
79544;BME280;68994;47.176;7.534;2023-04-15T02:38:06;95062.69;;;6.96;74.21
79544;BME280;68994;47.176;7.534;2023-04-15T02:40:32;95053.13;;;6.95;72.83
79544;BME280;68994;47.176;7.534;2023-04-15T02:42:59;95057.91;;;6.93;74.24
79544;BME280;68994;47.176;7.534;2023-04-15T02:45:26;95054.19;;;6.94;74.03
79544;BME280;68994;47.176;7.534;2023-04-15T02:47:52;95053.38;;;6.93;73.78
79544;BME280;68994;47.176;7.534;2023-04-15T02:50:19;95056.81;;;6.88;74.49
79544;BME280;68994;47.176;7.534;2023-04-15T02:52:49;95055.72;;;6.84;72.81
79544;BME280;68994;47.176;7.534;2023-04-15T02:55:15;95052.81;;;6.86;72.84
79544;BME280;68994;47.176;7.534;2023-04-15T02:57:42;95059.75;;;6.92;71.33
79544;BME280;68994;47.176;7.534;2023-04-15T03:00:09;95061.66;;;7.02;69.52
79544;BME280;68994;47.176;7.534;2023-04-15T03:02:37;95053.44;;;7.03;70.67
79544;BME280;68994;47.176;7.534;2023-04-15T03:05:04;95066.50;;;7.20;69.67
79544;BME280;68994;47.176;7.534;2023-04-15T03:07:31;95055.63;;;7.17;69.35
79544;BME280;68994;47.176;7.534;2023-04-15T03:10:00;95054.56;;;7.18;69.98
79544;BME280;68994;47.176;7.534;2023-04-15T03:12:27;95057.50;;;7.21;69.66
79544;BME280;68994;47.176;7.534;2023-04-15T03:14:54;95057.22;;;7.18;70.07
79544;BME280;68994;47.176;7.534;2023-04-15T03:17:21;95050.81;;;7.14;72.82
79544;BME280;68994;47.176;7.534;2023-04-15T03:19:47;95056.94;;;7.14;70.98
79544;BME280;68994;47.176;7.534;2023-04-15T03:22:14;95050.31;;;7.17;71.67
79544;BME280;68994;47.176;7.534;2023-04-15T03:24:41;95049.00;;;7.14;72.10
79544;BME280;68994;47.176;7.534;2023-04-15T03:27:09;95053.53;;;7.24;70.19
79544;BME280;68994;47.176;7.534;2023-04-15T03:29:35;95052.72;;;7.18;70.66
79544;BME280;68994;47.176;7.534;2023-04-15T03:32:02;95047.16;;;7.20;71.64
79544;BME280;68994;47.176;7.534;2023-04-15T03:34:29;95049.25;;;7.18;72.60
79544;BME280;68994;47.176;7.534;2023-04-15T03:36:55;95047.09;;;7.04;73.76
79544;BME280;68994;47.176;7.534;2023-04-15T03:39:22;95045.72;;;7.02;74.37
79544;BME280;68994;47.176;7.534;2023-04-15T03:41:49;95045.16;;;6.95;75.09
79544;BME280;68994;47.176;7.534;2023-04-15T03:44:16;95045.16;;;6.95;74.55
79544;BME280;68994;47.176;7.534;2023-04-15T03:46:43;95049.16;;;6.92;75.26
79544;BME280;68994;47.176;7.534;2023-04-15T03:49:10;95045.41;;;6.88;75.53
79544;BME280;68994;47.176;7.534;2023-04-15T03:51:36;95044.63;;;6.87;76.05
79544;BME280;68994;47.176;7.534;2023-04-15T03:54:03;95050.44;;;6.84;75.70
79544;BME280;68994;47.176;7.534;2023-04-15T03:56:30;95050.44;;;6.84;76.26
79544;BME280;68994;47.176;7.534;2023-04-15T03:58:56;95046.97;;;6.79;76.97
79544;BME280;68994;47.176;7.534;2023-04-15T04:01:24;95055.16;;;6.77;76.71
79544;BME280;68994;47.176;7.534;2023-04-15T04:03:51;95056.19;;;6.71;76.69
79544;BME280;68994;47.176;7.534;2023-04-15T04:06:17;95054.06;;;6.73;77.21
79544;BME280;68994;47.176;7.534;2023-04-15T04:08:44;95063.88;;;6.73;78.74
79544;BME280;68994;47.176;7.534;2023-04-15T04:11:11;95057.47;;;6.68;77.86
79544;BME280;68994;47.176;7.534;2023-04-15T04:13:37;95054.00;;;6.63;77.37
79544;BME280;68994;47.176;7.534;2023-04-15T04:16:05;95059.31;;;6.63;77.40
79544;BME280;68994;47.176;7.534;2023-04-15T04:18:33;95063.06;;;6.67;78.17
79544;BME280;68994;47.176;7.534;2023-04-15T04:20:59;95060.41;;;6.67;78.21
79544;BME280;68994;47.176;7.534;2023-04-15T04:23:26;95065.50;;;6.74;78.68
79544;BME280;68994;47.176;7.534;2023-04-15T04:25:52;95068.91;;;6.69;77.94
79544;BME280;68994;47.176;7.534;2023-04-15T04:28:19;95055.69;;;6.74;78.22
79544;BME280;68994;47.176;7.534;2023-04-15T04:30:46;95059.22;;;6.95;76.72
79544;BME280;68994;47.176;7.534;2023-04-15T04:33:12;95057.63;;;6.89;77.54
79544;BME280;68994;47.176;7.534;2023-04-15T04:35:40;95062.63;;;6.85;77.64
79544;BME280;68994;47.176;7.534;2023-04-15T04:38:07;95064.16;;;6.76;78.40
79544;BME280;68994;47.176;7.534;2023-04-15T04:40:33;95058.31;;;6.74;78.43
79544;BME280;68994;47.176;7.534;2023-04-15T04:43:00;95058.06;;;6.76;77.96
79544;BME280;68994;47.176;7.534;2023-04-15T04:45:27;95072.59;;;6.68;79.52
79544;BME280;68994;47.176;7.534;2023-04-15T04:47:53;95068.38;;;6.67;79.25
79544;BME280;68994;47.176;7.534;2023-04-15T04:50:20;95069.94;;;6.68;79.06
79544;BME280;68994;47.176;7.534;2023-04-15T04:52:48;95068.91;;;6.69;79.17
79544;BME280;68994;47.176;7.534;2023-04-15T04:55:15;95065.94;;;6.60;80.45
79544;BME280;68994;47.176;7.534;2023-04-15T04:57:41;95070.41;;;6.60;80.44
79544;BME280;68994;47.176;7.534;2023-04-15T05:00:09;95076.75;;;6.54;80.90
79544;BME280;68994;47.176;7.534;2023-04-15T05:02:36;95074.59;;;6.50;81.27
79544;BME280;68994;47.176;7.534;2023-04-15T05:05:04;95075.66;;;6.49;81.92
79544;BME280;68994;47.176;7.534;2023-04-15T05:07:30;95069.84;;;6.53;81.73
79544;BME280;68994;47.176;7.534;2023-04-15T05:09:58;95075.66;;;6.49;82.17
79544;BME280;68994;47.176;7.534;2023-04-15T05:12:25;95076.44;;;6.50;82.98
79544;BME280;68994;47.176;7.534;2023-04-15T05:14:52;95072.75;;;6.51;81.33
79544;BME280;68994;47.176;7.534;2023-04-15T05:17:18;95076.75;;;6.54;82.65
79544;BME280;68994;47.176;7.534;2023-04-15T05:19:45;95068.28;;;6.57;83.20
79544;BME280;68994;47.176;7.534;2023-04-15T05:22:11;95074.38;;;6.57;83.40
79544;BME280;68994;47.176;7.534;2023-04-15T05:24:38;95075.72;;;6.60;81.78
79544;BME280;68994;47.176;7.534;2023-04-15T05:27:06;95071.25;;;6.60;83.79
79544;BME280;68994;47.176;7.534;2023-04-15T05:29:34;95076.00;;;6.63;83.22
79544;BME280;68994;47.176;7.534;2023-04-15T05:32:01;95071.16;;;6.55;83.34
79544;BME280;68994;47.176;7.534;2023-04-15T05:34:28;95074.69;;;6.61;84.09
79544;BME280;68994;47.176;7.534;2023-04-15T05:36:54;95074.69;;;6.61;83.25
79544;BME280;68994;47.176;7.534;2023-04-15T05:39:21;95076.31;;;6.67;84.12
79544;BME280;68994;47.176;7.534;2023-04-15T05:41:47;95075.25;;;6.68;83.56
79544;BME280;68994;47.176;7.534;2023-04-15T05:44:15;95078.66;;;6.63;84.36
79544;BME280;68994;47.176;7.534;2023-04-15T05:46:42;95077.06;;;6.62;84.79
79544;BME280;68994;47.176;7.534;2023-04-15T05:49:08;95077.84;;;6.58;84.47
79544;BME280;68994;47.176;7.534;2023-04-15T05:51:35;95078.88;;;6.57;83.33
79544;BME280;68994;47.176;7.534;2023-04-15T05:54:02;95073.56;;;6.57;84.26
79544;BME280;68994;47.176;7.534;2023-04-15T05:56:28;95078.41;;;6.65;84.79
79544;BME280;68994;47.176;7.534;2023-04-15T05:58:55;95077.91;;;6.68;84.05
79544;BME280;68994;47.176;7.534;2023-04-15T06:01:23;95076.31;;;6.67;84.72
79544;BME280;68994;47.176;7.534;2023-04-15T06:03:49;95071.53;;;6.64;84.69
79544;BME280;68994;47.176;7.534;2023-04-15T06:06:16;95077.34;;;6.66;85.99
79544;BME280;68994;47.176;7.534;2023-04-15T06:08:43;95074.47;;;6.67;85.41
79544;BME280;68994;47.176;7.534;2023-04-15T06:11:09;95070.47;;;6.70;85.25
79544;BME280;68994;47.176;7.534;2023-04-15T06:13:36;95075.00;;;6.69;85.14
79544;BME280;68994;47.176;7.534;2023-04-15T06:16:02;95070.47;;;6.70;83.94
79544;BME280;68994;47.176;7.534;2023-04-15T06:18:30;95074.69;;;6.61;83.92
79544;BME280;68994;47.176;7.534;2023-04-15T06:20:57;95075.25;;;6.68;84.60
79544;BME280;68994;47.176;7.534;2023-04-15T06:23:24;95070.69;;;6.63;84.19
79544;BME280;68994;47.176;7.534;2023-04-15T06:25:50;95080.81;;;6.66;84.97
79544;BME280;68994;47.176;7.534;2023-04-15T06:28:17;95074.50;;;6.73;83.10
79544;BME280;68994;47.176;7.534;2023-04-15T06:30:44;95079.00;;;6.72;82.37
79544;BME280;68994;47.176;7.534;2023-04-15T06:33:11;95077.69;;;6.75;82.17
79544;BME280;68994;47.176;7.534;2023-04-15T06:35:39;95081.72;;;6.82;83.97
79544;BME280;68994;47.176;7.534;2023-04-15T06:38:05;95074.31;;;6.90;83.70
79544;BME280;68994;47.176;7.534;2023-04-15T06:40:32;95073.59;;;6.99;82.74
79544;BME280;68994;47.176;7.534;2023-04-15T06:42:59;95075.97;;;7.01;83.70
79544;BME280;68994;47.176;7.534;2023-04-15T06:45:26;95074.88;;;6.97;84.15
79544;BME280;68994;47.176;7.534;2023-04-15T06:47:52;95073.03;;;6.92;82.35
79544;BME280;68994;47.176;7.534;2023-04-15T06:50:19;95074.88;;;6.97;83.48
79544;BME280;68994;47.176;7.534;2023-04-15T06:52:46;95071.69;;;6.95;83.09
79544;BME280;68994;47.176;7.534;2023-04-15T06:55:13;95065.38;;;7.01;82.79
79544;BME280;68994;47.176;7.534;2023-04-15T06:57:40;95074.91;;;7.02;83.05
79544;BME280;68994;47.176;7.534;2023-04-15T07:00:07;95074.66;;;7.03;81.86
79544;BME280;68994;47.176;7.534;2023-04-15T07:02:35;95074.34;;;6.95;81.68
79544;BME280;68994;47.176;7.534;2023-04-15T07:05:02;95072.47;;;6.90;81.92
79544;BME280;68994;47.176;7.534;2023-04-15T07:07:29;95074.03;;;6.86;83.64
79544;BME280;68994;47.176;7.534;2023-04-15T07:09:57;95078.00;;;6.88;81.17
79544;BME280;68994;47.176;7.534;2023-04-15T07:12:24;95080.66;;;6.88;81.50
79544;BME280;68994;47.176;7.534;2023-04-15T07:14:51;95079.06;;;6.82;81.23
79544;BME280;68994;47.176;7.534;2023-04-15T07:17:17;95077.94;;;6.73;82.30
79544;BME280;68994;47.176;7.534;2023-04-15T07:19:44;95074.00;;;6.81;83.85
79544;BME280;68994;47.176;7.534;2023-04-15T07:22:10;95081.72;;;6.82;81.84
79544;BME280;68994;47.176;7.534;2023-04-15T07:24:37;95073.75;;;6.82;81.62
79544;BME280;68994;47.176;7.534;2023-04-15T07:27:05;95079.63;;;6.90;83.41
79544;BME280;68994;47.176;7.534;2023-04-15T07:29:31;95074.59;;;6.93;83.86
79544;BME280;68994;47.176;7.534;2023-04-15T07:31:58;95082.06;;;6.96;81.40
79544;BME280;68994;47.176;7.534;2023-04-15T07:34:25;95084.47;;;7.03;82.11
79544;BME280;68994;47.176;7.534;2023-04-15T07:36:51;95072.34;;;7.12;82.18
79544;BME280;68994;47.176;7.534;2023-04-15T07:39:18;95075.53;;;7.14;81.58
79544;BME280;68994;47.176;7.534;2023-04-15T07:41:45;95074.16;;;7.12;81.34
79544;BME280;68994;47.176;7.534;2023-04-15T07:44:13;95079.25;;;7.18;81.79
79544;BME280;68994;47.176;7.534;2023-04-15T07:46:39;95077.63;;;7.12;79.78
79544;BME280;68994;47.176;7.534;2023-04-15T07:49:06;95083.22;;;7.16;78.65
79544;BME280;68994;47.176;7.534;2023-04-15T07:51:33;95085.06;;;7.20;79.45
79544;BME280;68994;47.176;7.534;2023-04-15T07:54:00;95081.91;;;7.23;77.85
79544;BME280;68994;47.176;7.534;2023-04-15T07:56:28;95093.13;;;7.31;79.09
79544;BME280;68994;47.176;7.534;2023-04-15T07:58:55;95081.97;;;7.39;79.90
79544;BME280;68994;47.176;7.534;2023-04-15T08:01:23;95083.59;;;7.45;80.82
79544;BME280;68994;47.176;7.534;2023-04-15T08:03:49;95087.09;;;7.56;80.28
79544;BME280;68994;47.176;7.534;2023-04-15T08:06:16;95081.31;;;7.69;82.06
79544;BME280;68994;47.176;7.534;2023-04-15T08:08:43;95089.81;;;7.71;80.53
79544;BME280;68994;47.176;7.534;2023-04-15T08:11:10;95081.31;;;7.79;81.33
79544;BME280;68994;47.176;7.534;2023-04-15T08:13:36;95089.81;;;7.82;80.95
79544;BME280;68994;47.176;7.534;2023-04-15T08:16:15;95090.88;;;7.75;80.12
79544;BME280;68994;47.176;7.534;2023-04-15T08:18:43;95096.69;;;7.77;80.07
79544;BME280;68994;47.176;7.534;2023-04-15T08:21:10;95093.78;;;7.79;79.93
79544;BME280;68994;47.176;7.534;2023-04-15T08:23:37;95100.19;;;7.88;81.60
79544;BME280;68994;47.176;7.534;2023-04-15T08:26:03;95099.91;;;7.74;77.44
79544;BME280;68994;47.176;7.534;2023-04-15T08:28:30;95097.00;;;7.76;79.31
79544;BME280;68994;47.176;7.534;2023-04-15T08:30:57;95089.56;;;7.88;80.82
79544;BME280;68994;47.176;7.534;2023-04-15T08:33:24;95086.16;;;8.03;78.90
79544;BME280;68994;47.176;7.534;2023-04-15T08:35:52;95094.16;;;8.29;79.43
79544;BME280;68994;47.176;7.534;2023-04-15T08:38:19;95093.34;;;8.39;80.42
79544;BME280;68994;47.176;7.534;2023-04-15T08:40:45;95093.38;;;8.49;78.62
79544;BME280;68994;47.176;7.534;2023-04-15T08:43:14;95100.28;;;8.40;78.30
79544;BME280;68994;47.176;7.534;2023-04-15T08:45:44;95091.75;;;8.38;76.82
79544;BME280;68994;47.176;7.534;2023-04-15T08:48:14;95097.66;;;8.50;78.14
79544;BME280;68994;47.176;7.534;2023-04-15T08:50:40;95099.22;;;8.46;78.21
79544;BME280;68994;47.176;7.534;2023-04-15T08:53:09;95101.34;;;8.33;76.27
79544;BME280;68994;47.176;7.534;2023-04-15T08:55:40;95104.78;;;8.24;74.88
79544;BME280;68994;47.176;7.534;2023-04-15T08:58:09;95106.38;;;8.14;76.89
79544;BME280;68994;47.176;7.534;2023-04-15T09:00:36;95111.38;;;8.06;75.99
79544;BME280;68994;47.176;7.534;2023-04-15T09:03:03;95112.16;;;7.96;77.04
79544;BME280;68994;47.176;7.534;2023-04-15T09:05:31;95106.56;;;7.87;76.01
79544;BME280;68994;47.176;7.534;2023-04-15T09:07:57;95107.13;;;7.99;77.02
79544;BME280;68994;47.176;7.534;2023-04-15T09:10:26;95109.78;;;7.89;79.25
79544;BME280;68994;47.176;7.534;2023-04-15T09:12:53;95107.13;;;7.89;81.41
79544;BME280;68994;47.176;7.534;2023-04-15T09:15:20;95118.81;;;7.93;77.05
79544;BME280;68994;47.176;7.534;2023-04-15T09:17:46;95122.00;;;7.95;74.81
79544;BME280;68994;47.176;7.534;2023-04-15T09:20:14;95120.41;;;7.94;76.85
79544;BME280;68994;47.176;7.534;2023-04-15T09:22:44;95121.97;;;7.90;80.36
79544;BME280;68994;47.176;7.534;2023-04-15T09:25:28;95123.56;;;7.86;80.64
79544;BME280;68994;47.176;7.534;2023-04-15T09:27:57;95124.13;;;7.93;80.15
79544;BME280;68994;47.176;7.534;2023-04-15T09:30:24;95129.97;;;8.01;78.71
79544;BME280;68994;47.176;7.534;2023-04-15T09:32:51;95119.84;;;7.92;79.03
79544;BME280;68994;47.176;7.534;2023-04-15T09:35:19;95127.31;;;7.95;80.61
79544;BME280;68994;47.176;7.534;2023-04-15T09:37:46;95126.50;;;7.95;79.57
79544;BME280;68994;47.176;7.534;2023-04-15T09:40:12;95136.28;;;7.79;77.04
79544;BME280;68994;47.176;7.534;2023-04-15T09:42:56;95140.25;;;7.66;79.09
79544;BME280;68994;47.176;7.534;2023-04-15T09:45:23;95151.66;;;7.67;81.89
79544;BME280;68994;47.176;7.534;2023-04-15T09:47:50;95151.94;;;7.70;82.27
79544;BME280;68994;47.176;7.534;2023-04-15T09:50:17;95144.78;;;7.76;80.93
79544;BME280;68994;47.176;7.534;2023-04-15T09:52:44;95154.34;;;7.77;79.79
79544;BME280;68994;47.176;7.534;2023-04-15T09:55:13;95155.44;;;7.86;78.54
79544;BME280;68994;47.176;7.534;2023-04-15T09:57:39;95144.25;;;7.79;79.80
79544;BME280;68994;47.176;7.534;2023-04-15T10:00:08;95149.88;;;7.83;79.21
79544;BME280;68994;47.176;7.534;2023-04-15T10:02:36;95159.41;;;7.78;79.67
79544;BME280;68994;47.176;7.534;2023-04-15T10:05:03;95149.88;;;7.88;76.56
79544;BME280;68994;47.176;7.534;2023-04-15T10:07:31;95157.53;;;7.84;78.86
79544;BME280;68994;47.176;7.534;2023-04-15T10:09:58;95152.81;;;7.91;79.37
79544;BME280;68994;47.176;7.534;2023-04-15T10:12:26;95161.09;;;8.10;79.03
79544;BME280;68994;47.176;7.534;2023-04-15T10:14:57;95163.22;;;8.13;78.22
79544;BME280;68994;47.176;7.534;2023-04-15T10:17:27;95168.28;;;8.20;76.61
79544;BME280;68994;47.176;7.534;2023-04-15T10:19:59;95165.34;;;8.06;77.70
79544;BME280;68994;47.176;7.534;2023-04-15T10:22:27;95174.06;;;7.96;78.01
79544;BME280;68994;47.176;7.534;2023-04-15T10:24:54;95177.28;;;8.04;77.61
79544;BME280;68994;47.176;7.534;2023-04-15T10:27:22;95173.00;;;8.03;77.81
79544;BME280;68994;47.176;7.534;2023-04-15T10:29:50;95173.53;;;7.94;76.47
79544;BME280;68994;47.176;7.534;2023-04-15T10:32:18;95179.91;;;7.98;76.88
79544;BME280;68994;47.176;7.534;2023-04-15T10:34:47;95186.84;;;7.99;77.24
79544;BME280;68994;47.176;7.534;2023-04-15T10:37:19;95188.13;;;7.87;76.66
79544;BME280;68994;47.176;7.534;2023-04-15T10:39:46;95191.53;;;7.77;77.32
79544;BME280;68994;47.176;7.534;2023-04-15T10:42:15;95193.06;;;7.63;79.48
79544;BME280;68994;47.176;7.534;2023-04-15T10:44:42;95194.66;;;7.64;77.85
79544;BME280;68994;47.176;7.534;2023-04-15T10:47:11;95189.25;;;7.43;79.47
79544;BME280;68994;47.176;7.534;2023-04-15T10:49:47;95193.19;;;7.40;79.72
79544;BME280;68994;47.176;7.534;2023-04-15T10:52:15;95198.81;;;7.44;79.53
79544;BME280;68994;47.176;7.534;2023-04-15T10:54:42;95194.06;;;7.51;78.77
79544;BME280;68994;47.176;7.534;2023-04-15T10:57:14;95200.91;;;7.42;79.79
79544;BME280;68994;47.176;7.534;2023-04-15T11:00:03;95206.78;;;7.44;78.59
79544;BME280;68994;47.176;7.534;2023-04-15T11:02:39;95200.16;;;7.52;79.31
79544;BME280;68994;47.176;7.534;2023-04-15T11:05:08;95210.56;;;7.58;82.22
79544;BME280;68994;47.176;7.534;2023-04-15T11:07:36;95216.22;;;7.77;75.91
79544;BME280;68994;47.176;7.534;2023-04-15T11:10:03;95211.69;;;7.68;75.70
79544;BME280;68994;47.176;7.534;2023-04-15T11:12:34;95212.22;;;7.70;75.12
79544;BME280;68994;47.176;7.534;2023-04-15T11:15:26;95219.63;;;7.63;76.76
79544;BME280;68994;47.176;7.534;2023-04-15T11:17:52;95231.03;;;7.63;78.17
79544;BME280;68994;47.176;7.534;2023-04-15T11:20:20;95228.16;;;7.70;77.54
79544;BME280;68994;47.176;7.534;2023-04-15T11:22:49;95226.09;;;7.87;74.44
79544;BME280;68994;47.176;7.534;2023-04-15T11:25:21;95226.59;;;7.84;76.18
79544;BME280;68994;47.176;7.534;2023-04-15T11:27:48;95221.38;;;7.94;73.31
79544;BME280;68994;47.176;7.534;2023-04-15T11:30:19;95226.72;;;8.10;77.56
79544;BME280;68994;47.176;7.534;2023-04-15T11:32:47;95222.22;;;8.21;75.07
79544;BME280;68994;47.176;7.534;2023-04-15T11:35:13;95223.88;;;8.37;75.73
79544;BME280;68994;47.176;7.534;2023-04-15T11:37:42;95231.13;;;8.52;76.36
79544;BME280;68994;47.176;7.534;2023-04-15T11:40:10;95240.16;;;8.61;72.00
79544;BME280;68994;47.176;7.534;2023-04-15T11:42:37;95241.78;;;8.57;72.84
79544;BME280;68994;47.176;7.534;2023-04-15T11:45:07;95232.19;;;8.66;72.90
79544;BME280;68994;47.176;7.534;2023-04-15T11:47:34;95234.63;;;8.78;70.78
79544;BME280;68994;47.176;7.534;2023-04-15T11:50:13;95244.19;;;8.89;71.11
79544;BME280;68994;47.176;7.534;2023-04-15T11:52:40;95247.69;;;9.00;71.63
79544;BME280;68994;47.176;7.534;2023-04-15T11:55:08;95249.25;;;9.01;68.96
79544;BME280;68994;47.176;7.534;2023-04-15T11:57:35;95252.75;;;9.17;72.54
79544;BME280;68994;47.176;7.534;2023-04-15T12:00:02;95258.84;;;9.28;69.63
79544;BME280;68994;47.176;7.534;2023-04-15T12:02:30;95263.38;;;9.33;69.73
79544;BME280;68994;47.176;7.534;2023-04-15T12:05:02;95264.16;;;9.23;67.46
79544;BME280;68994;47.176;7.534;2023-04-15T12:07:29;95262.56;;;9.01;70.73
79544;BME280;68994;47.176;7.534;2023-04-15T12:09:56;95267.38;;;9.04;68.50
79544;BME280;68994;47.176;7.534;2023-04-15T12:12:27;95268.97;;;9.05;69.86
79544;BME280;68994;47.176;7.534;2023-04-15T12:14:55;95278.53;;;9.06;68.91
79544;BME280;68994;47.176;7.534;2023-04-15T12:17:24;95286.78;;;9.00;72.33
79544;BME280;68994;47.176;7.534;2023-04-15T12:19:55;95291.84;;;9.01;69.54
79544;BME280;68994;47.176;7.534;2023-04-15T12:22:22;95287.53;;;8.80;68.86
79544;BME280;68994;47.176;7.534;2023-04-15T12:24:53;95293.94;;;8.79;70.12
79544;BME280;68994;47.176;7.534;2023-04-15T12:27:26;95299.81;;;8.86;75.60
79544;BME280;68994;47.176;7.534;2023-04-15T12:30:02;95299.53;;;8.93;74.88
79544;BME280;68994;47.176;7.534;2023-04-15T12:32:34;95305.66;;;8.93;74.69
79544;BME280;68994;47.176;7.534;2023-04-15T12:35:01;95303.56;;;8.90;72.56
79544;BME280;68994;47.176;7.534;2023-04-15T12:37:27;95317.91;;;8.94;71.35
79544;BME280;68994;47.176;7.534;2023-04-15T12:39:54;95323.75;;;8.86;75.74
79544;BME280;68994;47.176;7.534;2023-04-15T12:42:20;95328.81;;;8.98;71.38
79544;BME280;68994;47.176;7.534;2023-04-15T12:44:49;95345.56;;;8.88;72.28
79544;BME280;68994;47.176;7.534;2023-04-15T12:47:15;95338.63;;;8.77;74.37
79544;BME280;68994;47.176;7.534;2023-04-15T12:49:42;95344.22;;;8.80;74.95
79544;BME280;68994;47.176;7.534;2023-04-15T12:52:08;95352.50;;;8.89;74.81
79544;BME280;68994;47.176;7.534;2023-04-15T12:54:35;95358.91;;;8.98;74.64
79544;BME280;68994;47.176;7.534;2023-04-15T12:57:02;95363.41;;;8.98;76.32
79544;BME280;68994;47.176;7.534;2023-04-15T12:59:29;95366.06;;;8.98;76.21
79544;BME280;68994;47.176;7.534;2023-04-15T13:01:57;95372.22;;;9.03;71.02
79544;BME280;68994;47.176;7.534;2023-04-15T13:04:24;95376.22;;;9.06;73.38
79544;BME280;68994;47.176;7.534;2023-04-15T13:06:54;95379.41;;;9.13;75.66
79544;BME280;68994;47.176;7.534;2023-04-15T13:09:21;95372.00;;;9.25;69.90
79544;BME280;68994;47.176;7.534;2023-04-15T13:11:48;95380.22;;;9.14;70.89